Aeroporto :
LOGIN :

Iscrizione | Disclaimer

   EN    FR    IT 

 










Sommario :    VFR   VFR Marginale   IFR   IFR Intensivo   IFR Molto Intensivo
Visibilità : 
Base nubi : 
>= 8 km
>= 3000ft
5 / 8 km
1000 / 3000 ft
1500m / 5 km
500 / 1000 ft
800 / 1500m
200 / 500 ft
< 800m
< 200 ft
Simboli :   Temporali  Nebbia  Neve Forte  Precipitazioni Forti  Vento > 20 kt
SIGMETs :   Varie  Temporali  Ghiacco  Turbolenza  Onda orograficha  Ceneri Vulcaniche






- Altitudine del aeroporto : 978 ft
- Codice IATA : LNZ


LOWL - Linz

ULTIMO METAR :
  • 141220Z 28023G34KT 9999 FEW013 SCT034 BKN042 09/05 Q0998 NOSIG

METARs OBSOLETI :
  • 141150Z 06006KT 9999 FEW028 SCT032 BKN036 03/03 Q0997 WS R26 BECMG 27020G40KT
  • 141120Z 04005KT 9999 FEW030 SCT032 BKN042 03/02 Q0997 WS R26 BECMG 27020G40KT
  • 141050Z 03003KT 350V100 9999 -SHRA FEW016 SCT044 BKN050 03/02 Q0996 WS R26 BECMG 27020G40KT
  • 141020Z 14004KT 110V170 9999 FEW032 SCT040 BKN050 02/02 Q0996 WS R26 BECMG 27020G40KT
  • 140950Z 10004KT 9999 FEW020 SCT034 BKN038 02/01 Q0996 WS R26 NOSIG

TAF TAF LOWL
Valido dal 14 a 12 ore il 15 a 12 ore UTC


141115Z 1412/1512 05004KT 9999 FEW015 BKN035 TX06/1416Z TN00/1505Z
BECMG 1412/1414 27010KT
TEMPO 1412/1416 27020G40KT
BECMG 1418/1420 VRB02KT



MetMap, La meteo Aeronautica in un colpo d'occhio ! - Copyright ORBIFLY Dicembre 2007 - Disclaimer

ORBIFLY MET'MAP TEAM :

Programmazione e sviluppo : Alexandra Zaïnal
Concezione : Baudouin d'Aumeries
Aiuto per la programmazione : Marc-Olivier Méhu
Supporto tecnico e logistico : Manuel Goepfert
Aiuto per la traduzione : Arnaldo La Scala

Contatto : metmap@orbifly.com




FONTI E CREDITI :

   NOAA